Time;durP1;ratioP1;P1;durP2;ratioP2;P2;SDS_P1;SDS_P2;PMS_P1;PMS_P2;Temp;Humidity;BMP_temperature;BMP_pressure;BME280_temperature;BME280_humidity;BME280_pressure;Samples;Min_cycle;Max_cycle;Signal;HPM_P1;HPM_P2
2023/06/17 00:01:12;;;;;;;9.82;7.82;;;;;;;18.58;100.00;99881.97;5112630;27;20039;-67
2023/06/17 00:03:37;;;;;;;9.93;7.43;;;;;;;18.68;100.00;99896.06;5113718;27;20529;-67
2023/06/17 00:06:03;;;;;;;9.68;8.55;;;;;;;18.69;100.00;99887.72;5126714;27;20053;-67
2023/06/17 00:08:28;;;;;;;10.63;8.70;;;;;;;18.68;100.00;99883.34;5121575;27;20055;-66
2023/06/17 00:10:54;;;;;;;8.63;7.82;;;;;;;18.66;100.00;99882.69;5109072;28;20038;-67
2023/06/17 00:13:19;;;;;;;11.45;8.35;;;;;;;18.67;100.00;99886.25;5109127;28;20020;-66
2023/06/17 00:15:47;;;;;;;12.23;8.35;;;;;;;18.64;100.00;99887.44;5108268;28;20065;-67
2023/06/17 00:18:14;;;;;;;12.93;8.50;;;;;;;18.63;100.00;99890.41;5107503;28;20080;-67
2023/06/17 00:20:39;;;;;;;12.90;7.43;;;;;;;18.61;100.00;99876.16;5112678;27;20023;-67
2023/06/17 00:23:06;;;;;;;15.10;9.02;;;;;;;18.57;100.00;99867.56;5113557;27;20506;-66
2023/06/17 00:25:31;;;;;;;11.00;8.40;;;;;;;18.59;100.00;99883.66;5123217;27;20027;-65
2023/06/17 00:27:57;;;;;;;14.95;9.00;;;;;;;18.58;100.00;99884.69;5123084;27;20027;-67
2023/06/17 00:30:22;;;;;;;9.68;8.40;;;;;;;18.55;100.00;99885.09;5129633;27;20026;-66
2023/06/17 00:32:48;;;;;;;9.57;8.40;;;;;;;18.53;100.00;99884.44;5108987;27;20047;-67
2023/06/17 00:35:13;;;;;;;13.30;8.20;;;;;;;18.52;100.00;99882.75;5112069;27;20034;-65
2023/06/17 00:37:38;;;;;;;12.32;8.07;;;;;;;18.52;100.00;99878.19;5127810;27;20068;-66
2023/06/17 00:40:08;;;;;;;12.63;8.10;;;;;;;18.36;100.00;99853.13;5111964;27;20351;-66
2023/06/17 00:42:34;;;;;;;11.43;9.15;;;;;;;18.47;100.00;99869.75;5113815;27;20042;-65
2023/06/17 00:45:00;;;;;;;10.77;8.18;;;;;;;18.46;100.00;99867.25;5128961;27;20042;-67
2023/06/17 00:47:25;;;;;;;10.98;8.10;;;;;;;18.46;100.00;99868.09;5117385;27;20028;-66
2023/06/17 00:49:53;;;;;;;14.98;9.18;;;;;;;18.48;100.00;99870.63;5116216;27;20036;-67
2023/06/17 00:52:18;;;;;;;18.48;10.38;;;;;;;18.39;100.00;99867.22;5128486;27;20019;-67
2023/06/17 00:54:44;;;;;;;12.07;8.65;;;;;;;18.30;100.00;99848.47;5120553;27;20538;-66
2023/06/17 00:57:14;;;;;;;13.35;7.97;;;;;;;18.46;100.00;99887.09;5113364;27;20020;-66
2023/06/17 00:59:42;;;;;;;13.68;9.32;;;;;;;18.41;100.00;99875.97;5124545;27;20076;-66
2023/06/17 01:02:09;;;;;;;10.90;9.02;;;;;;;18.36;100.00;99875.75;5106710;28;20046;-67
2023/06/17 01:04:43;;;;;;;14.57;9.57;;;;;;;18.26;100.00;99864.34;5112036;27;20112;-67
2023/06/17 01:07:23;;;;;;;13.38;9.10;;;;;;;18.30;100.00;99879.19;5119003;27;20533;-67
2023/06/17 01:10:02;;;;;;;15.32;9.45;;;;;;;18.26;100.00;99874.34;5107777;27;20047;-66
2023/06/17 01:12:29;;;;;;;11.05;8.73;;;;;;;18.24;100.00;99873.69;5116194;27;20377;-65
2023/06/17 01:14:57;;;;;;;14.60;9.05;;;;;;;18.16;100.00;99860.25;5116644;27;20398;-67
2023/06/17 01:17:25;;;;;;;12.73;8.77;;;;;;;18.13;100.00;99861.50;5113831;27;20109;-66
2023/06/17 01:19:53;;;;;;;16.52;9.70;;;;;;;18.10;100.00;99853.75;5119967;27;20042;-66
2023/06/17 01:22:20;;;;;;;14.48;9.50;;;;;;;18.17;100.00;99862.78;5113874;27;20047;-65
2023/06/17 01:24:49;;;;;;;10.15;9.02;;;;;;;18.19;100.00;99859.88;5114085;27;20059;-67
2023/06/17 01:27:15;;;;;;;13.65;9.00;;;;;;;18.18;100.00;99856.31;5116122;27;20031;-66
2023/06/17 01:29:41;;;;;;;13.13;8.90;;;;;;;18.20;100.00;99859.69;5107822;28;20382;-65
2023/06/17 01:32:07;;;;;;;14.18;8.68;;;;;;;18.17;100.00;99853.78;5127653;27;20474;-65
2023/06/17 01:34:45;;;;;;;12.02;9.25;;;;;;;18.16;100.00;99850.25;5116184;27;20023;-66
2023/06/17 01:37:11;;;;;;;10.35;8.57;;;;;;;18.12;100.00;99840.78;5107586;27;20066;-65
2023/06/17 01:39:40;;;;;;;10.80;9.70;;;;;;;18.13;100.00;99857.94;5117223;27;20497;-66
2023/06/17 01:42:11;;;;;;;16.48;9.60;;;;;;;18.08;100.00;99857.69;5121596;27;20494;-67
2023/06/17 01:44:39;;;;;;;11.32;9.52;;;;;;;17.98;100.00;99844.44;5110446;27;20034;-67
2023/06/17 01:47:09;;;;;;;13.05;10.30;;;;;;;18.05;100.00;99864.31;5120972;27;20046;-67
2023/06/17 01:49:35;;;;;;;10.77;8.48;;;;;;;18.02;100.00;99862.84;5114260;27;20043;-67
2023/06/17 01:52:00;;;;;;;12.60;9.43;;;;;;;18.01;100.00;99861.19;5110236;27;20031;-65
2023/06/17 01:54:27;;;;;;;10.98;8.40;;;;;;;18.03;100.00;99855.56;5110708;27;20114;-65
2023/06/17 01:56:53;;;;;;;11.73;9.40;;;;;;;17.99;100.00;99846.09;5123264;27;20046;-67
2023/06/17 01:59:18;;;;;;;12.40;8.98;;;;;;;17.98;100.00;99842.56;5110820;27;20027;-67
2023/06/17 02:01:44;;;;;;;11.18;8.93;;;;;;;18.05;100.00;99854.31;5107861;27;20072;-66
2023/06/17 02:04:09;;;;;;;12.00;10.20;;;;;;;18.08;100.00;99863.94;5111885;28;20029;-66
2023/06/17 02:06:35;;;;;;;13.32;9.23;;;;;;;18.05;100.00;99853.47;5112735;27;20080;-66
2023/06/17 02:09:01;;;;;;;10.48;9.48;;;;;;;18.02;100.00;99849.28;5109799;28;21229;-66
2023/06/17 02:11:27;;;;;;;15.93;10.13;;;;;;;17.91;100.00;99852.50;5107511;28;20048;-66
2023/06/17 02:13:52;;;;;;;12.93;9.93;;;;;;;17.93;100.00;99855.84;5106622;28;20035;-65
2023/06/17 02:16:18;;;;;;;10.73;9.40;;;;;;;17.91;100.00;99857.09;5125940;28;20533;-67
2023/06/17 02:18:43;;;;;;;10.90;9.05;;;;;;;17.81;100.00;99852.00;5122202;27;20108;-67
2023/06/17 02:21:09;;;;;;;10.82;9.60;;;;;;;17.84;100.00;99862.44;5115281;27;20081;-66
2023/06/17 02:23:35;;;;;;;13.40;9.18;;;;;;;17.83;100.00;99862.63;5112404;27;20118;-66
2023/06/17 02:26:01;;;;;;;10.35;8.73;;;;;;;17.80;100.00;99861.13;5115429;28;20067;-65
2023/06/17 02:28:26;;;;;;;13.70;8.98;;;;;;;17.77;100.00;99866.13;5109104;27;20032;-65
2023/06/17 02:30:52;;;;;;;14.07;9.90;;;;;;;17.77;100.00;99861.53;5113504;28;20519;-65
2023/06/17 02:33:21;;;;;;;13.55;9.50;;;;;;;17.74;100.00;99859.19;5125870;28;20035;-66
2023/06/17 02:35:46;;;;;;;11.30;8.93;;;;;;;17.67;100.00;99849.31;5109690;27;20034;-65
2023/06/17 02:38:13;;;;;;;11.43;8.95;;;;;;;17.69;100.00;99860.81;5106210;28;20043;-66
2023/06/17 02:40:38;;;;;;;11.52;8.77;;;;;;;17.65;100.00;99865.78;5123562;28;20474;-66
2023/06/17 02:43:04;;;;;;;14.45;10.15;;;;;;;17.59;100.00;99861.13;5111929;27;20031;-65
2023/06/17 02:45:29;;;;;;;9.93;8.93;;;;;;;17.64;100.00;99874.13;5119800;28;20443;-66
2023/06/17 02:47:55;;;;;;;16.17;9.82;;;;;;;17.55;100.00;99867.09;5109759;28;20031;-66
2023/06/17 02:50:23;;;;;;;14.13;10.25;;;;;;;17.43;100.00;99852.34;5109622;28;20038;-66
2023/06/17 02:52:55;;;;;;;11.32;9.60;;;;;;;17.57;100.00;99870.44;5107442;28;20049;-67
2023/06/17 02:55:21;;;;;;;15.30;9.65;;;;;;;17.52;100.00;99867.50;5121264;27;20036;-66
2023/06/17 02:57:47;;;;;;;13.38;10.05;;;;;;;17.53;100.00;99870.00;5109816;28;20028;-66
2023/06/17 03:00:13;;;;;;;13.55;10.43;;;;;;;17.52;100.00;99876.47;5115832;27;20076;-65
2023/06/17 03:02:38;;;;;;;10.48;9.38;;;;;;;17.50;100.00;99878.53;5113918;27;20043;-66
2023/06/17 03:05:06;;;;;;;12.27;9.57;;;;;;;17.51;100.00;99884.78;5123292;27;20552;-66
2023/06/17 03:07:35;;;;;;;10.93;8.90;;;;;;;17.45;100.00;99877.41;5123590;27;20035;-66
2023/06/17 03:10:02;;;;;;;10.02;9.02;;;;;;;17.44;100.00;99883.84;5118573;27;20477;-66
2023/06/17 03:12:28;;;;;;;10.63;9.25;;;;;;;17.45;100.00;99872.81;5131470;27;20055;-66
2023/06/17 03:14:53;;;;;;;10.80;8.30;;;;;;;17.49;100.00;99881.41;5115949;27;20499;-65
2023/06/17 03:17:18;;;;;;;11.65;8.82;;;;;;;17.48;100.00;99877.03;5111069;28;20024;-66
2023/06/17 03:19:44;;;;;;;9.55;8.35;;;;;;;17.47;100.00;99892.44;5113164;27;20054;-66
2023/06/17 03:22:10;;;;;;;9.25;8.15;;;;;;;17.46;100.00;99895.34;5128629;27;20043;-70
2023/06/17 03:24:35;;;;;;;10.27;9.10;;;;;;;17.37;100.00;99885.59;5118095;27;20028;-71
2023/06/17 03:27:01;;;;;;;10.57;8.15;;;;;;;17.32;100.00;99872.59;5126106;27;20067;-66
2023/06/17 03:29:27;;;;;;;10.27;8.55;;;;;;;17.30;100.00;99874.69;5118528;27;20040;-66
2023/06/17 03:31:56;;;;;;;12.02;8.80;;;;;;;17.33;100.00;99878.88;5110526;27;20096;-66
2023/06/17 03:34:22;;;;;;;12.80;9.15;;;;;;;17.36;100.00;99886.63;5118084;27;20024;-66
2023/06/17 03:36:49;;;;;;;10.52;8.88;;;;;;;17.33;100.00;99892.44;5117622;27;20032;-66
2023/06/17 03:39:15;;;;;;;9.80;8.10;;;;;;;17.34;100.00;99894.09;5120858;27;20114;-66
2023/06/17 03:41:40;;;;;;;9.63;8.57;;;;;;;17.34;100.00;99896.81;5115441;27;20187;-66
2023/06/17 03:44:05;;;;;;;9.30;8.20;;;;;;;17.29;100.00;99891.13;5109470;27;20038;-67
2023/06/17 03:46:31;;;;;;;13.07;8.68;;;;;;;17.34;100.00;99894.09;5127725;27;20476;-65
2023/06/17 03:48:57;;;;;;;8.93;7.63;;;;;;;17.35;100.00;99884.97;5113066;27;20479;-66
2023/06/17 03:51:22;;;;;;;13.40;9.20;;;;;;;17.37;100.00;99888.31;5117958;27;20032;-66
2023/06/17 03:53:48;;;;;;;9.88;8.50;;;;;;;17.38;100.00;99904.38;5116286;27;20070;-66
2023/06/17 03:56:14;;;;;;;14.15;8.50;;;;;;;17.31;100.00;99884.50;5117067;27;20107;-65
2023/06/17 03:58:40;;;;;;;9.60;8.23;;;;;;;17.37;100.00;99896.44;5113912;27;20032;-66
2023/06/17 04:01:07;;;;;;;9.05;8.23;;;;;;;17.34;100.00;99889.53;5111755;27;20024;-66
2023/06/17 04:03:34;;;;;;;15.02;9.00;;;;;;;17.32;100.00;99891.59;5121306;27;20023;-66
2023/06/17 04:06:00;;;;;;;9.10;8.18;;;;;;;17.36;100.00;99892.91;5110527;28;20323;-66
2023/06/17 04:08:27;;;;;;;10.02;8.30;;;;;;;17.34;100.00;99892.25;5117365;27;20109;-66
2023/06/17 04:10:53;;;;;;;9.43;8.52;;;;;;;17.36;100.00;99900.19;5114515;27;20039;-66
2023/06/17 04:13:18;;;;;;;10.05;9.02;;;;;;;17.40;100.00;99909.63;5114612;27;20031;-65
2023/06/17 04:15:45;;;;;;;13.23;8.65;;;;;;;17.41;100.00;99914.88;5112758;27;20055;-66
2023/06/17 04:18:11;;;;;;;8.90;8.00;;;;;;;17.38;100.00;99912.53;5114030;27;20035;-65
2023/06/17 04:20:36;;;;;;;8.98;8.02;;;;;;;17.40;100.00;99917.75;5112834;27;20042;-65
2023/06/17 04:23:02;;;;;;;9.88;8.88;;;;;;;17.40;100.00;99909.63;5113019;27;20043;-65
2023/06/17 04:25:32;;;;;;;12.90;8.50;;;;;;;17.28;100.00;99898.41;5114864;27;20032;-65
2023/06/17 04:27:58;;;;;;;11.32;8.90;;;;;;;17.31;100.00;99910.75;5112433;27;20030;-65
2023/06/17 04:30:25;;;;;;;9.13;8.15;;;;;;;17.37;100.00;99913.56;5115452;27;20035;-67
2023/06/17 04:32:54;;;;;;;11.30;9.27;;;;;;;17.32;99.45;99907.03;5112283;27;20035;-66
2023/06/17 04:35:20;;;;;;;9.77;8.73;;;;;;;17.36;99.63;99919.16;5120674;27;20054;-67
2023/06/17 04:37:53;;;;;;;12.88;8.52;;;;;;;17.32;98.83;99909.75;5111985;27;20028;-66
2023/06/17 04:40:22;;;;;;;11.95;9.45;;;;;;;17.27;98.93;99912.16;5119732;27;20039;-66
2023/06/17 04:42:51;;;;;;;10.70;8.30;;;;;;;17.27;98.12;99918.44;5118083;27;20170;-66
2023/06/17 04:45:17;;;;;;;12.60;8.75;;;;;;;17.24;97.93;99909.81;5117249;27;20020;-66
2023/06/17 04:47:46;;;;;;;13.88;8.70;;;;;;;17.30;98.51;99923.47;5112788;27;20152;-66
2023/06/17 04:50:15;;;;;;;13.48;8.27;;;;;;;17.31;98.79;99929.72;5113669;27;20027;-67
2023/06/17 04:52:47;;;;;;;15.75;8.77;;;;;;;17.31;99.18;99924.31;5121745;27;20028;-66
2023/06/17 04:55:14;;;;;;;13.70;8.13;;;;;;;17.34;99.81;99918.50;5118420;27;20015;-66
2023/06/17 04:57:41;;;;;;;10.85;9.13;;;;;;;17.39;99.34;99924.22;5128788;27;20045;-65
2023/06/17 05:00:09;;;;;;;12.48;8.93;;;;;;;17.44;98.66;99932.66;5117823;27;20494;-67
2023/06/17 05:02:35;;;;;;;11.63;8.48;;;;;;;17.46;98.18;99922.47;5109483;28;20028;-65
2023/06/17 05:05:01;;;;;;;11.48;8.68;;;;;;;17.54;97.59;99927.81;5126202;27;20490;-66
2023/06/17 05:07:26;;;;;;;13.23;8.60;;;;;;;17.54;97.50;99925.91;5109619;28;20027;-66
2023/06/17 05:09:52;;;;;;;12.23;9.25;;;;;;;17.62;97.05;99927.69;5119570;27;20027;-67
2023/06/17 05:12:17;;;;;;;15.52;9.60;;;;;;;17.66;97.01;99934.41;5112551;27;20038;-66
2023/06/17 05:14:43;;;;;;;18.23;9.48;;;;;;;17.65;97.36;99928.16;5114368;27;20016;-66
2023/06/17 05:17:08;;;;;;;12.70;9.55;;;;;;;17.69;96.87;99924.03;5126973;27;20106;-66
2023/06/17 05:19:33;;;;;;;13.15;9.18;;;;;;;17.55;96.01;99902.38;5122080;27;20032;-66
2023/06/17 05:21:59;;;;;;;10.73;9.38;;;;;;;17.71;96.32;99932.00;5117529;27;20062;-65
2023/06/17 05:24:24;;;;;;;9.70;8.65;;;;;;;17.61;96.11;99921.41;5113647;27;20038;-67
2023/06/17 05:26:50;;;;;;;10.25;9.00;;;;;;;17.62;96.68;99925.84;5121883;27;20031;-66
2023/06/17 05:29:15;;;;;;;9.65;8.43;;;;;;;17.74;96.79;99935.16;5110118;27;20031;-67
2023/06/17 05:31:41;;;;;;;10.32;9.27;;;;;;;17.75;96.85;99939.56;5125133;27;20027;-66
2023/06/17 05:34:06;;;;;;;10.32;9.27;;;;;;;17.80;97.25;99944.41;5119615;27;20035;-65
2023/06/17 05:36:31;;;;;;;10.40;8.18;;;;;;;17.72;96.84;99915.53;5117806;27;20023;-66
2023/06/17 05:38:57;;;;;;;12.82;9.13;;;;;;;17.90;96.88;99936.81;5119075;27;20031;-66
2023/06/17 05:41:23;;;;;;;9.65;8.65;;;;;;;17.93;97.04;99933.72;5123167;27;20031;-65
2023/06/17 05:43:48;;;;;;;10.20;8.60;;;;;;;17.86;97.40;99914.63;5119178;27;20102;-66
2023/06/17 05:46:14;;;;;;;9.50;8.40;;;;;;;17.95;97.43;99915.38;5119132;27;20022;-66
2023/06/17 05:48:39;;;;;;;12.30;9.00;;;;;;;18.19;97.81;99936.72;5120562;27;20030;-67
2023/06/17 05:51:18;;;;;;;12.18;10.25;;;;;;;18.29;95.31;99931.81;5122165;27;20030;-67
2023/06/17 05:53:44;;;;;;;9.45;8.52;;;;;;;18.40;94.89;99944.91;5112356;27;20020;-67
2023/06/17 05:56:09;;;;;;;15.25;10.23;;;;;;;18.45;94.88;99942.47;5121236;27;20046;-66
2023/06/17 05:58:35;;;;;;;11.63;9.30;;;;;;;18.54;95.19;99933.13;5110205;27;20023;-66
2023/06/17 06:01:01;;;;;;;12.45;9.20;;;;;;;18.64;95.59;99939.06;5116991;27;20394;-65
2023/06/17 06:03:27;;;;;;;11.65;9.48;;;;;;;18.73;94.69;99943.34;5112974;27;20037;-66
2023/06/17 06:05:52;;;;;;;11.35;9.70;;;;;;;18.79;94.11;99939.84;5117978;27;20031;-66
2023/06/17 06:08:18;;;;;;;11.15;8.38;;;;;;;18.97;93.58;99947.50;5109805;27;20050;-65
2023/06/17 06:10:43;;;;;;;11.20;9.48;;;;;;;18.97;92.46;99923.91;5111749;27;20113;-65
2023/06/17 06:13:09;;;;;;;10.98;9.75;;;;;;;19.12;91.82;99938.22;5116739;27;20058;-65
2023/06/17 06:15:34;;;;;;;11.55;10.35;;;;;;;19.30;91.47;99943.19;5114196;27;20509;-65
2023/06/17 06:18:00;;;;;;;11.57;9.63;;;;;;;19.40;90.95;99949.94;5113470;28;20043;-65
2023/06/17 06:20:26;;;;;;;12.10;9.40;;;;;;;19.44;91.18;99951.22;5116767;27;20015;-66
2023/06/17 06:22:52;;;;;;;10.57;9.43;;;;;;;19.48;91.78;99941.59;5118393;27;20055;-66
2023/06/17 06:25:18;;;;;;;10.05;9.05;;;;;;;19.68;91.32;99956.19;5118057;27;20077;-66
2023/06/17 06:27:44;;;;;;;11.40;10.02;;;;;;;19.73;91.42;99952.81;5113436;27;20487;-66
2023/06/17 06:30:10;;;;;;;9.82;8.50;;;;;;;19.80;90.95;99956.44;5114976;27;20043;-65
2023/06/17 06:32:35;;;;;;;10.70;9.60;;;;;;;19.92;90.64;99954.81;5123640;27;20029;-67
2023/06/17 06:35:02;;;;;;;11.25;8.40;;;;;;;20.04;90.10;99951.31;5113136;27;20395;-65
2023/06/17 06:37:28;;;;;;;12.90;9.85;;;;;;;20.15;88.98;99950.75;5115207;27;20028;-65
2023/06/17 06:39:53;;;;;;;13.00;10.05;;;;;;;20.37;87.21;99956.88;5115790;27;20050;-66
2023/06/17 06:42:19;;;;;;;11.07;9.35;;;;;;;20.40;87.42;99944.72;5112116;27;20085;-65
2023/06/17 06:44:45;;;;;;;11.70;9.52;;;;;;;20.56;86.61;99949.75;5114491;27;20092;-66
2023/06/17 06:47:10;;;;;;;13.15;9.88;;;;;;;20.72;82.82;99954.81;5126583;27;20106;-67
2023/06/17 06:49:35;;;;;;;10.70;8.25;;;;;;;20.77;82.09;99952.31;5120704;27;20050;-67
2023/06/17 06:52:01;;;;;;;14.63;8.40;;;;;;;20.68;80.44;99921.72;5122765;27;20028;-66
2023/06/17 06:54:26;;;;;;;9.65;8.30;;;;;;;20.94;79.01;99956.34;5124364;27;20031;-67
2023/06/17 06:56:52;;;;;;;10.35;8.52;;;;;;;20.96;79.75;99968.69;5114654;27;20023;-67
2023/06/17 06:59:17;;;;;;;9.90;8.32;;;;;;;20.98;79.07;99966.63;5123035;27;20032;-66
2023/06/17 07:01:43;;;;;;;12.60;8.32;;;;;;;20.97;78.78;99964.09;5117262;27;20027;-64
2023/06/17 07:04:08;;;;;;;10.15;8.02;;;;;;;20.96;78.82;99959.69;5118445;27;20035;-66
2023/06/17 07:06:33;;;;;;;9.38;8.25;;;;;;;21.02;78.27;99976.03;5115704;27;20065;-66
2023/06/17 07:08:59;;;;;;;10.68;8.45;;;;;;;20.87;79.31;99941.84;5121560;27;20039;-66
2023/06/17 07:11:26;;;;;;;14.10;8.75;;;;;;;21.03;79.48;99960.53;5128562;27;20039;-66
2023/06/17 07:13:52;;;;;;;9.68;7.68;;;;;;;21.00;80.50;99950.91;5114921;27;20037;-66
2023/06/17 07:16:17;;;;;;;12.05;8.63;;;;;;;21.14;79.33;99962.63;5119312;27;20118;-66
2023/06/17 07:18:43;;;;;;;14.32;8.63;;;;;;;21.19;78.44;99965.56;5121639;27;20472;-65
2023/06/17 07:21:10;;;;;;;10.05;8.48;;;;;;;21.23;78.07;99964.09;5118372;27;20379;-66
2023/06/17 07:23:35;;;;;;;10.98;9.25;;;;;;;21.22;78.04;99951.50;5115755;27;20105;-67
2023/06/17 07:26:01;;;;;;;11.82;8.80;;;;;;;21.23;78.15;99954.03;5120024;27;20043;-66
2023/06/17 07:28:28;;;;;;;13.18;8.25;;;;;;;21.33;78.19;99954.41;5110622;27;20378;-66
2023/06/17 07:30:55;;;;;;;9.45;8.25;;;;;;;21.39;78.59;99955.44;5126524;27;20074;-65
2023/06/17 07:33:21;;;;;;;9.25;7.18;;;;;;;21.40;77.58;99938.03;5111240;27;20023;-67
2023/06/17 07:35:47;;;;;;;10.88;8.40;;;;;;;21.57;77.48;99955.63;5111933;27;20088;-66
2023/06/17 07:38:12;;;;;;;9.20;7.50;;;;;;;21.61;76.88;99946.78;5123489;27;22516;-65
2023/06/17 07:40:38;;;;;;;10.98;7.82;;;;;;;21.75;75.90;99955.81;5109594;27;20023;-65
2023/06/17 07:43:03;;;;;;;9.40;8.25;;;;;;;21.85;74.96;99962.50;5121102;27;20019;-65
2023/06/17 07:45:29;;;;;;;9.50;8.15;;;;;;;21.88;75.53;99958.50;5114820;27;20026;-66
2023/06/17 07:47:54;;;;;;;9.15;7.55;;;;;;;21.95;75.23;99953.84;5121417;27;20401;-66
2023/06/17 07:50:20;;;;;;;11.90;8.30;;;;;;;22.00;75.20;99956.78;5113012;27;20034;-65
2023/06/17 07:52:45;;;;;;;9.27;8.25;;;;;;;22.05;74.00;99951.47;5117233;27;20110;-66
2023/06/17 07:55:11;;;;;;;8.02;6.35;;;;;;;22.15;73.41;99960.88;5126272;27;20095;-66
2023/06/17 07:57:36;;;;;;;8.93;8.00;;;;;;;22.21;72.23;99968.22;5117254;27;20039;-67
2023/06/17 08:00:09;;;;;;;9.50;8.40;;;;;;;22.23;71.59;99957.91;5123036;27;20466;-67
2023/06/17 08:02:34;;;;;;;8.93;7.85;;;;;;;22.30;71.82;99964.19;5118136;27;20096;-65
2023/06/17 08:05:00;;;;;;;10.98;8.48;;;;;;;22.32;72.64;99964.78;5128428;27;20043;-66
2023/06/17 08:07:26;;;;;;;8.50;7.57;;;;;;;22.34;72.87;99967.28;5109612;27;20096;-66
2023/06/17 08:09:52;;;;;;;9.98;8.75;;;;;;;22.30;71.76;99974.25;5119642;27;20028;-67
2023/06/17 08:12:17;;;;;;;8.85;7.63;;;;;;;22.31;71.45;99970.47;5113740;27;20042;-66
2023/06/17 08:14:43;;;;;;;11.55;8.10;;;;;;;22.38;71.49;99968.56;5117284;27;20047;-66
2023/06/17 08:17:08;;;;;;;9.65;8.65;;;;;;;22.46;70.56;99971.03;5116270;27;20034;-66
2023/06/17 08:19:34;;;;;;;8.98;8.05;;;;;;;22.51;70.21;99968.50;5121100;27;20050;-65
2023/06/17 08:22:00;;;;;;;12.52;8.88;;;;;;;22.50;70.12;99972.28;5113702;27;20051;-65
2023/06/17 08:24:26;;;;;;;11.35;8.57;;;;;;;22.52;69.73;99974.78;5118482;27;20425;-66
2023/06/17 08:26:53;;;;;;;11.20;8.05;;;;;;;22.56;68.48;99976.03;5111061;27;20131;-66
2023/06/17 08:29:20;;;;;;;11.95;8.77;;;;;;;22.53;67.79;99971.84;5119907;27;20494;-66
2023/06/17 08:31:47;;;;;;;10.40;8.18;;;;;;;22.49;68.42;99981.56;5125662;27;20023;-66
2023/06/17 08:34:13;;;;;;;9.80;8.52;;;;;;;22.45;69.23;99969.34;5117993;27;20032;-66
2023/06/17 08:36:45;;;;;;;10.05;7.75;;;;;;;22.56;68.49;99976.03;5110473;27;20477;-66
2023/06/17 08:39:11;;;;;;;10.55;9.35;;;;;;;22.55;67.75;99977.09;5108825;27;20036;-65
2023/06/17 08:41:41;;;;;;;10.68;8.63;;;;;;;22.49;67.13;99970.63;5125498;27;20027;-68
2023/06/17 08:44:11;;;;;;;9.18;8.27;;;;;;;22.50;67.72;99983.22;5127459;27;20035;-67
2023/06/17 08:46:37;;;;;;;10.60;9.10;;;;;;;22.38;66.48;99959.50;5120817;27;20050;-66
2023/06/17 08:49:03;;;;;;;9.63;8.57;;;;;;;22.50;67.17;99983.22;5125961;27;20053;-67
2023/06/17 08:51:30;;;;;;;10.85;8.70;;;;;;;22.45;67.45;99980.28;5114855;27;20036;-66
2023/06/17 08:53:56;;;;;;;10.95;7.95;;;;;;;22.47;68.28;99978.16;5124357;27;20043;-67
2023/06/17 08:56:22;;;;;;;17.15;9.15;;;;;;;22.50;69.25;99987.88;5111639;27;20019;-67
2023/06/17 08:58:49;;;;;;;13.05;9.15;;;;;;;22.46;69.11;99971.03;5117993;27;20046;-67
2023/06/17 09:01:16;;;;;;;8.70;7.30;;;;;;;22.43;68.24;99966.00;5121597;27;20103;-67
2023/06/17 09:03:42;;;;;;;10.02;9.02;;;;;;;22.51;67.45;99973.97;5115990;27;20024;-66
2023/06/17 09:06:24;;;;;;;8.77;7.88;;;;;;;22.51;67.54;99982.19;5120307;27;20034;-67
2023/06/17 09:08:51;;;;;;;9.20;8.10;;;;;;;22.43;67.97;99963.25;5107861;27;20024;-66
2023/06/17 09:11:20;;;;;;;11.57;8.52;;;;;;;22.54;67.63;99979.00;5115509;27;20110;-67
2023/06/17 09:13:50;;;;;;;10.35;8.70;;;;;;;22.56;66.15;99979.59;5117661;27;20472;-67
2023/06/17 09:16:37;;;;;;;11.23;7.88;;;;;;;22.61;65.74;99987.16;5109289;27;20475;-66
2023/06/17 09:19:05;;;;;;;10.65;6.93;;;;;;;22.57;65.69;99983.19;5122773;27;20551;-67
2023/06/17 09:21:31;;;;;;;11.02;7.57;;;;;;;22.56;66.46;99993.28;5121247;27;20054;-67
2023/06/17 09:24:02;;;;;;;9.32;7.78;;;;;;;22.43;66.02;99971.44;5119657;27;20026;-67
2023/06/17 09:26:29;;;;;;;11.43;8.35;;;;;;;22.55;65.80;99985.28;5121157;27;20039;-67
2023/06/17 09:29:03;;;;;;;9.55;7.85;;;;;;;22.60;65.60;99986.31;5114145;27;20113;-67
2023/06/17 09:31:29;;;;;;;12.43;8.05;;;;;;;22.46;65.38;99960.09;5114133;27;20494;-67
2023/06/17 09:33:58;;;;;;;12.25;8.20;;;;;;;22.53;65.83;99962.81;5122091;27;20027;-67
2023/06/17 09:36:25;;;;;;;12.43;7.97;;;;;;;22.62;65.48;99986.94;5111745;27;20039;-66
2023/06/17 09:38:51;;;;;;;9.85;7.47;;;;;;;22.51;66.44;99976.72;5127721;27;20030;-68
2023/06/17 09:41:18;;;;;;;9.07;8.02;;;;;;;22.47;66.74;99967.22;5109292;27;20043;-67
2023/06/17 09:43:53;;;;;;;8.50;7.25;;;;;;;22.67;66.27;99978.94;5112024;27;20027;-67
2023/06/17 09:46:35;;;;;;;9.45;6.90;;;;;;;22.67;66.84;99970.72;5113298;27;20039;-66
2023/06/17 09:49:05;;;;;;;7.88;7.07;;;;;;;22.69;66.98;99971.31;5114698;27;20046;-67
2023/06/17 09:51:36;;;;;;;11.18;7.70;;;;;;;22.73;66.07;99963.53;5114904;27;20498;-66
2023/06/17 09:54:02;;;;;;;8.70;7.18;;;;;;;22.84;65.17;99974.59;5108029;28;20473;-67
2023/06/17 09:56:31;;;;;;;10.02;7.78;;;;;;;22.88;65.05;99969.50;5119749;27;20041;-67
2023/06/17 09:58:57;;;;;;;9.82;7.60;;;;;;;22.90;64.90;99960.03;5108544;27;20039;-66
2023/06/17 10:01:24;;;;;;;7.57;6.88;;;;;;;22.95;65.01;99960.19;5119019;27;20054;-67
2023/06/17 10:03:50;;;;;;;8.43;7.40;;;;;;;23.06;64.04;99969.56;5117029;27;20035;-68
2023/06/17 10:06:19;;;;;;;10.40;7.45;;;;;;;23.04;62.21;99950.63;5113517;27;20054;-67
2023/06/17 10:08:48;;;;;;;8.60;6.97;;;;;;;23.16;62.17;99968.00;5109906;28;20019;-67
2023/06/17 10:11:18;;;;;;;9.05;7.60;;;;;;;23.25;61.72;99971.31;5117243;27;20046;-67
2023/06/17 10:13:49;;;;;;;8.90;7.13;;;;;;;23.27;60.75;99952.75;5121222;27;20020;-67
2023/06/17 10:16:18;;;;;;;8.30;7.05;;;;;;;23.31;59.57;99951.28;5110311;28;20023;-67
2023/06/17 10:18:48;;;;;;;15.02;7.45;;;;;;;23.44;59.68;99965.66;5110275;28;20038;-67
2023/06/17 10:21:14;;;;;;;7.60;6.53;;;;;;;23.38;60.50;99944.66;5117328;28;20596;-68
2023/06/17 10:23:43;;;;;;;8.48;6.43;;;;;;;23.46;59.53;99949.84;5121802;27;20416;-67
2023/06/17 10:26:11;;;;;;;9.77;7.57;;;;;;;23.61;58.52;99965.91;5115191;28;20087;-67
2023/06/17 10:29:01;;;;;;;10.32;7.38;;;;;;;23.62;59.20;99965.69;5107843;28;20552;-67
2023/06/17 10:31:31;;;;;;;6.95;6.25;;;;;;;23.61;58.99;99966.75;5111026;28;20389;-66
2023/06/17 10:34:00;;;;;;;11.35;6.15;;;;;;;23.70;57.65;99959.88;5109173;28;20498;-67
2023/06/17 10:36:27;;;;;;;7.50;6.63;;;;;;;23.76;57.60;99964.47;5114168;27;20019;-67
2023/06/17 10:38:53;;;;;;;9.65;6.63;;;;;;;23.79;57.49;99969.47;5109114;28;20044;-67
2023/06/17 10:41:18;;;;;;;8.68;6.85;;;;;;;23.81;57.01;99950.94;5118337;28;20239;-67
2023/06/17 10:43:44;;;;;;;11.82;7.20;;;;;;;23.84;56.65;99949.63;5115075;28;20039;-67
2023/06/17 10:46:09;;;;;;;7.80;6.88;;;;;;;23.88;56.42;99957.16;5114512;28;20064;-67
2023/06/17 10:48:36;;;;;;;7.90;6.05;;;;;;;23.90;56.77;99954.19;5113427;28;20116;-67
2023/06/17 10:51:11;;;;;;;6.22;5.63;;;;;;;23.90;55.99;99944.06;5115986;28;20028;-67
2023/06/17 10:53:37;;;;;;;9.02;6.40;;;;;;;24.00;56.24;99946.28;5109379;28;20038;-67
2023/06/17 10:56:06;;;;;;;7.18;5.70;;;;;;;24.10;53.90;99944.69;5123770;27;20161;-67
2023/06/17 10:58:35;;;;;;;6.05;5.45;;;;;;;24.22;51.71;99951.03;5124365;27;20062;-67
2023/06/17 11:01:04;;;;;;;8.25;5.97;;;;;;;24.16;52.80;99949.25;5116728;27;20429;-67
2023/06/17 11:03:30;;;;;;;6.57;5.95;;;;;;;24.22;52.04;99950.22;5122165;27;20043;-67
2023/06/17 11:06:04;;;;;;;6.15;5.55;;;;;;;24.25;51.64;99936.88;5117032;27;20505;-66
2023/06/17 11:08:31;;;;;;;7.45;5.15;;;;;;;24.30;51.34;99950.75;5118712;28;20031;-67
2023/06/17 11:11:14;;;;;;;5.55;5.05;;;;;;;24.37;51.47;99939.66;5106893;27;20431;-66
2023/06/17 11:13:53;;;;;;;6.57;4.95;;;;;;;24.42;51.19;99946.16;5110215;28;20061;-66
2023/06/17 11:16:18;;;;;;;4.97;4.50;;;;;;;24.45;50.65;99942.09;5115670;27;20034;-67
2023/06/17 11:18:47;;;;;;;5.93;4.63;;;;;;;24.48;50.08;99946.25;5119786;27;20114;-67
2023/06/17 11:21:15;;;;;;;6.40;5.40;;;;;;;24.45;49.90;99951.13;5121265;27;20023;-66
2023/06/17 11:23:42;;;;;;;5.40;4.88;;;;;;;24.39;49.81;99946.59;5118091;27;20359;-66